sensor_id;sensor_type;location;lat;lon;timestamp;temperature;humidity
19755;DHT22;10036;47.812;9.274;2023-03-01T00:01:36;-0.30;99.90
19755;DHT22;10036;47.812;9.274;2023-03-01T00:04:03;-0.20;99.90
19755;DHT22;10036;47.812;9.274;2023-03-01T00:06:30;-0.20;99.90
19755;DHT22;10036;47.812;9.274;2023-03-01T00:08:57;-0.20;99.90
19755;DHT22;10036;47.812;9.274;2023-03-01T00:11:27;0.00;99.90
19755;DHT22;10036;47.812;9.274;2023-03-01T00:13:55;0.00;99.90
19755;DHT22;10036;47.812;9.274;2023-03-01T00:16:24;0.00;99.90
19755;DHT22;10036;47.812;9.274;2023-03-01T00:18:53;0.10;99.90
19755;DHT22;10036;47.812;9.274;2023-03-01T00:21:21;0.10;99.90
19755;DHT22;10036;47.812;9.274;2023-03-01T00:23:48;0.10;99.90
19755;DHT22;10036;47.812;9.274;2023-03-01T00:26:17;0.00;99.90
19755;DHT22;10036;47.812;9.274;2023-03-01T00:28:46;0.10;99.90
19755;DHT22;10036;47.812;9.274;2023-03-01T00:31:14;0.10;99.90
19755;DHT22;10036;47.812;9.274;2023-03-01T00:33:42;0.40;99.90
19755;DHT22;10036;47.812;9.274;2023-03-01T00:36:12;0.50;99.90
19755;DHT22;10036;47.812;9.274;2023-03-01T00:38:40;0.50;99.90
19755;DHT22;10036;47.812;9.274;2023-03-01T00:41:09;0.40;99.90
19755;DHT22;10036;47.812;9.274;2023-03-01T00:43:36;0.40;99.90
19755;DHT22;10036;47.812;9.274;2023-03-01T00:46:07;0.50;99.90
19755;DHT22;10036;47.812;9.274;2023-03-01T00:48:34;0.60;99.90
19755;DHT22;10036;47.812;9.274;2023-03-01T00:51:06;0.60;99.90
19755;DHT22;10036;47.812;9.274;2023-03-01T00:53:33;0.60;99.90
19755;DHT22;10036;47.812;9.274;2023-03-01T00:56:01;0.50;99.90
19755;DHT22;10036;47.812;9.274;2023-03-01T00:58:29;0.50;99.90
19755;DHT22;10036;47.812;9.274;2023-03-01T01:00:55;0.50;99.90
19755;DHT22;10036;47.812;9.274;2023-03-01T01:03:24;0.50;99.90
19755;DHT22;10036;47.812;9.274;2023-03-01T01:05:51;0.60;99.90
19755;DHT22;10036;47.812;9.274;2023-03-01T01:08:18;0.60;99.90
19755;DHT22;10036;47.812;9.274;2023-03-01T01:10:45;0.60;99.90
19755;DHT22;10036;47.812;9.274;2023-03-01T01:13:12;0.70;99.90
19755;DHT22;10036;47.812;9.274;2023-03-01T01:15:39;0.90;99.90
19755;DHT22;10036;47.812;9.274;2023-03-01T01:18:07;0.90;99.90
19755;DHT22;10036;47.812;9.274;2023-03-01T01:20:36;0.80;99.90
19755;DHT22;10036;47.812;9.274;2023-03-01T01:23:05;0.80;99.90
19755;DHT22;10036;47.812;9.274;2023-03-01T01:25:35;0.70;99.90
19755;DHT22;10036;47.812;9.274;2023-03-01T01:28:02;0.80;99.90
19755;DHT22;10036;47.812;9.274;2023-03-01T01:30:29;1.00;99.90
19755;DHT22;10036;47.812;9.274;2023-03-01T01:32:56;1.00;99.90
19755;DHT22;10036;47.812;9.274;2023-03-01T01:35:23;1.00;99.90
19755;DHT22;10036;47.812;9.274;2023-03-01T01:37:51;0.90;99.90
19755;DHT22;10036;47.812;9.274;2023-03-01T01:40:18;0.90;99.90
19755;DHT22;10036;47.812;9.274;2023-03-01T01:42:45;0.80;99.90
19755;DHT22;10036;47.812;9.274;2023-03-01T01:45:31;0.90;99.90
19755;DHT22;10036;47.812;9.274;2023-03-01T01:48:02;0.90;99.90
19755;DHT22;10036;47.812;9.274;2023-03-01T01:50:31;0.80;99.90
19755;DHT22;10036;47.812;9.274;2023-03-01T01:53:08;0.80;99.90
19755;DHT22;10036;47.812;9.274;2023-03-01T01:55:36;0.80;99.90
19755;DHT22;10036;47.812;9.274;2023-03-01T01:58:08;0.80;99.90
19755;DHT22;10036;47.812;9.274;2023-03-01T02:00:37;0.80;99.90
19755;DHT22;10036;47.812;9.274;2023-03-01T02:03:07;0.80;99.90
19755;DHT22;10036;47.812;9.274;2023-03-01T02:05:40;0.80;99.90
19755;DHT22;10036;47.812;9.274;2023-03-01T02:08:12;0.80;99.90
19755;DHT22;10036;47.812;9.274;2023-03-01T02:10:41;0.80;99.90
19755;DHT22;10036;47.812;9.274;2023-03-01T02:13:08;0.80;99.90
19755;DHT22;10036;47.812;9.274;2023-03-01T02:15:38;0.70;99.90
19755;DHT22;10036;47.812;9.274;2023-03-01T02:18:07;0.70;99.90
19755;DHT22;10036;47.812;9.274;2023-03-01T02:20:40;0.80;99.90
19755;DHT22;10036;47.812;9.274;2023-03-01T02:23:13;0.80;99.90
19755;DHT22;10036;47.812;9.274;2023-03-01T02:25:48;0.80;99.90
19755;DHT22;10036;47.812;9.274;2023-03-01T02:28:26;0.80;99.90
19755;DHT22;10036;47.812;9.274;2023-03-01T02:30:53;0.80;99.90
19755;DHT22;10036;47.812;9.274;2023-03-01T02:33:39;0.90;99.90
19755;DHT22;10036;47.812;9.274;2023-03-01T02:36:09;1.00;99.90
19755;DHT22;10036;47.812;9.274;2023-03-01T02:38:39;1.10;99.90
19755;DHT22;10036;47.812;9.274;2023-03-01T02:41:07;1.10;99.90
19755;DHT22;10036;47.812;9.274;2023-03-01T02:43:35;1.00;99.90
19755;DHT22;10036;47.812;9.274;2023-03-01T02:46:05;0.90;99.90
19755;DHT22;10036;47.812;9.274;2023-03-01T02:48:44;0.80;99.90
19755;DHT22;10036;47.812;9.274;2023-03-01T02:51:26;0.90;99.90
19755;DHT22;10036;47.812;9.274;2023-03-01T02:54:02;1.00;99.90
19755;DHT22;10036;47.812;9.274;2023-03-01T02:56:32;1.00;99.90
19755;DHT22;10036;47.812;9.274;2023-03-01T02:59:01;1.00;99.90
19755;DHT22;10036;47.812;9.274;2023-03-01T03:01:29;1.00;99.90
19755;DHT22;10036;47.812;9.274;2023-03-01T03:04:03;0.90;99.90
19755;DHT22;10036;47.812;9.274;2023-03-01T03:06:30;0.80;99.90
19755;DHT22;10036;47.812;9.274;2023-03-01T03:08:57;0.80;99.90
19755;DHT22;10036;47.812;9.274;2023-03-01T03:11:24;0.80;99.90
19755;DHT22;10036;47.812;9.274;2023-03-01T03:13:51;0.80;99.90
19755;DHT22;10036;47.812;9.274;2023-03-01T03:16:19;0.80;99.90
19755;DHT22;10036;47.812;9.274;2023-03-01T03:18:48;0.80;99.90
19755;DHT22;10036;47.812;9.274;2023-03-01T03:21:15;1.00;99.90
19755;DHT22;10036;47.812;9.274;2023-03-01T03:23:43;1.00;99.90
19755;DHT22;10036;47.812;9.274;2023-03-01T03:26:10;1.10;99.90
19755;DHT22;10036;47.812;9.274;2023-03-01T03:28:39;1.20;99.90
19755;DHT22;10036;47.812;9.274;2023-03-01T03:31:06;1.10;99.90
19755;DHT22;10036;47.812;9.274;2023-03-01T03:33:35;1.10;99.90
19755;DHT22;10036;47.812;9.274;2023-03-01T03:36:02;1.00;99.90
19755;DHT22;10036;47.812;9.274;2023-03-01T03:38:29;0.90;99.90
19755;DHT22;10036;47.812;9.274;2023-03-01T03:41:01;1.00;99.90
19755;DHT22;10036;47.812;9.274;2023-03-01T03:43:29;0.90;99.90
19755;DHT22;10036;47.812;9.274;2023-03-01T03:45:56;0.80;99.90
19755;DHT22;10036;47.812;9.274;2023-03-01T03:48:24;0.80;99.90
19755;DHT22;10036;47.812;9.274;2023-03-01T03:50:54;0.80;99.90
19755;DHT22;10036;47.812;9.274;2023-03-01T03:53:22;0.80;99.90
19755;DHT22;10036;47.812;9.274;2023-03-01T03:55:50;0.80;99.90
19755;DHT22;10036;47.812;9.274;2023-03-01T03:58:18;0.80;99.90
19755;DHT22;10036;47.812;9.274;2023-03-01T04:00:47;0.70;99.90
19755;DHT22;10036;47.812;9.274;2023-03-01T04:03:16;0.80;99.90
19755;DHT22;10036;47.812;9.274;2023-03-01T04:05:44;0.90;99.90
19755;DHT22;10036;47.812;9.274;2023-03-01T04:08:13;1.10;99.90
19755;DHT22;10036;47.812;9.274;2023-03-01T04:10:41;1.20;99.90
19755;DHT22;10036;47.812;9.274;2023-03-01T04:13:12;1.20;99.90
19755;DHT22;10036;47.812;9.274;2023-03-01T04:15:40;1.00;99.90
19755;DHT22;10036;47.812;9.274;2023-03-01T04:18:09;0.90;99.90
19755;DHT22;10036;47.812;9.274;2023-03-01T04:20:36;0.90;99.90
19755;DHT22;10036;47.812;9.274;2023-03-01T04:23:06;0.90;99.90
19755;DHT22;10036;47.812;9.274;2023-03-01T04:25:42;0.80;99.90
19755;DHT22;10036;47.812;9.274;2023-03-01T04:28:09;0.80;99.90
19755;DHT22;10036;47.812;9.274;2023-03-01T04:30:37;0.80;99.90
19755;DHT22;10036;47.812;9.274;2023-03-01T04:33:05;0.80;99.90
19755;DHT22;10036;47.812;9.274;2023-03-01T04:35:32;0.90;99.90
19755;DHT22;10036;47.812;9.274;2023-03-01T04:37:59;1.00;99.90
19755;DHT22;10036;47.812;9.274;2023-03-01T04:40:26;1.00;99.90
19755;DHT22;10036;47.812;9.274;2023-03-01T04:42:54;0.90;99.90
19755;DHT22;10036;47.812;9.274;2023-03-01T04:45:21;1.00;99.90
19755;DHT22;10036;47.812;9.274;2023-03-01T04:47:48;1.10;99.90
19755;DHT22;10036;47.812;9.274;2023-03-01T04:50:18;1.10;99.90
19755;DHT22;10036;47.812;9.274;2023-03-01T04:52:46;1.10;99.90
19755;DHT22;10036;47.812;9.274;2023-03-01T04:55:13;1.00;99.90
19755;DHT22;10036;47.812;9.274;2023-03-01T04:57:40;1.10;99.90
19755;DHT22;10036;47.812;9.274;2023-03-01T05:00:11;1.00;99.90
19755;DHT22;10036;47.812;9.274;2023-03-01T05:02:47;0.90;99.90
19755;DHT22;10036;47.812;9.274;2023-03-01T05:05:19;0.80;99.90
19755;DHT22;10036;47.812;9.274;2023-03-01T05:07:46;1.00;99.90
19755;DHT22;10036;47.812;9.274;2023-03-01T05:10:13;1.10;99.90
19755;DHT22;10036;47.812;9.274;2023-03-01T05:12:40;1.00;99.90
19755;DHT22;10036;47.812;9.274;2023-03-01T05:15:09;1.00;99.90
19755;DHT22;10036;47.812;9.274;2023-03-01T05:17:36;1.10;99.90
19755;DHT22;10036;47.812;9.274;2023-03-01T05:20:03;1.00;99.90
19755;DHT22;10036;47.812;9.274;2023-03-01T05:22:34;1.00;99.90
19755;DHT22;10036;47.812;9.274;2023-03-01T05:25:01;0.90;99.90
19755;DHT22;10036;47.812;9.274;2023-03-01T05:27:28;0.90;99.90
19755;DHT22;10036;47.812;9.274;2023-03-01T05:29:55;1.00;99.90
19755;DHT22;10036;47.812;9.274;2023-03-01T05:32:23;1.00;99.90
19755;DHT22;10036;47.812;9.274;2023-03-01T05:34:50;0.90;99.90
19755;DHT22;10036;47.812;9.274;2023-03-01T05:37:17;0.80;99.90
19755;DHT22;10036;47.812;9.274;2023-03-01T05:39:45;0.90;99.90
19755;DHT22;10036;47.812;9.274;2023-03-01T05:42:11;1.00;99.90
19755;DHT22;10036;47.812;9.274;2023-03-01T05:44:38;0.90;99.90
19755;DHT22;10036;47.812;9.274;2023-03-01T05:47:06;0.90;99.90
19755;DHT22;10036;47.812;9.274;2023-03-01T05:49:35;0.80;99.90
19755;DHT22;10036;47.812;9.274;2023-03-01T05:52:02;0.80;99.90
19755;DHT22;10036;47.812;9.274;2023-03-01T05:54:29;1.00;99.90
19755;DHT22;10036;47.812;9.274;2023-03-01T05:56:55;1.10;99.90
19755;DHT22;10036;47.812;9.274;2023-03-01T05:59:22;1.10;99.90
19755;DHT22;10036;47.812;9.274;2023-03-01T06:01:49;0.90;99.90
19755;DHT22;10036;47.812;9.274;2023-03-01T06:04:16;1.00;99.90
19755;DHT22;10036;47.812;9.274;2023-03-01T06:06:44;1.00;99.90
19755;DHT22;10036;47.812;9.274;2023-03-01T06:09:11;1.10;99.90
19755;DHT22;10036;47.812;9.274;2023-03-01T06:11:38;1.10;99.90
19755;DHT22;10036;47.812;9.274;2023-03-01T06:14:06;1.10;99.90
19755;DHT22;10036;47.812;9.274;2023-03-01T06:16:33;1.00;99.90
19755;DHT22;10036;47.812;9.274;2023-03-01T06:19:00;0.90;99.90
19755;DHT22;10036;47.812;9.274;2023-03-01T06:21:27;0.90;99.90
19755;DHT22;10036;47.812;9.274;2023-03-01T06:23:55;1.00;99.90
19755;DHT22;10036;47.812;9.274;2023-03-01T06:26:22;1.00;99.90
19755;DHT22;10036;47.812;9.274;2023-03-01T06:28:48;1.00;99.90
19755;DHT22;10036;47.812;9.274;2023-03-01T06:31:16;0.90;99.90
19755;DHT22;10036;47.812;9.274;2023-03-01T06:33:43;0.90;99.90
19755;DHT22;10036;47.812;9.274;2023-03-01T06:36:10;1.00;99.90
19755;DHT22;10036;47.812;9.274;2023-03-01T06:38:37;0.90;99.90
19755;DHT22;10036;47.812;9.274;2023-03-01T06:41:07;0.90;99.90
19755;DHT22;10036;47.812;9.274;2023-03-01T06:43:34;0.80;99.90
19755;DHT22;10036;47.812;9.274;2023-03-01T06:46:04;0.90;99.90
19755;DHT22;10036;47.812;9.274;2023-03-01T06:48:32;1.00;99.90
19755;DHT22;10036;47.812;9.274;2023-03-01T06:50:59;1.00;99.90
19755;DHT22;10036;47.812;9.274;2023-03-01T06:53:27;1.00;99.90
19755;DHT22;10036;47.812;9.274;2023-03-01T06:55:55;0.90;99.90
19755;DHT22;10036;47.812;9.274;2023-03-01T06:58:23;0.90;99.90
19755;DHT22;10036;47.812;9.274;2023-03-01T07:00:50;0.80;99.90
19755;DHT22;10036;47.812;9.274;2023-03-01T07:03:17;0.90;99.90
19755;DHT22;10036;47.812;9.274;2023-03-01T07:05:44;0.90;99.90
19755;DHT22;10036;47.812;9.274;2023-03-01T07:08:11;0.90;99.90
19755;DHT22;10036;47.812;9.274;2023-03-01T07:10:37;0.90;99.90
19755;DHT22;10036;47.812;9.274;2023-03-01T07:13:04;0.90;99.90
19755;DHT22;10036;47.812;9.274;2023-03-01T07:15:34;1.00;99.90
19755;DHT22;10036;47.812;9.274;2023-03-01T07:18:00;1.00;99.90
19755;DHT22;10036;47.812;9.274;2023-03-01T07:20:27;1.00;99.90
19755;DHT22;10036;47.812;9.274;2023-03-01T07:22:55;1.00;99.90
19755;DHT22;10036;47.812;9.274;2023-03-01T07:25:24;1.00;99.90
19755;DHT22;10036;47.812;9.274;2023-03-01T07:27:51;1.00;99.90
19755;DHT22;10036;47.812;9.274;2023-03-01T07:30:19;1.10;99.90
19755;DHT22;10036;47.812;9.274;2023-03-01T07:32:47;1.00;99.90
19755;DHT22;10036;47.812;9.274;2023-03-01T07:35:14;1.00;99.90
19755;DHT22;10036;47.812;9.274;2023-03-01T07:37:41;1.00;99.90
19755;DHT22;10036;47.812;9.274;2023-03-01T07:40:09;1.10;99.90
19755;DHT22;10036;47.812;9.274;2023-03-01T07:42:36;1.10;99.90
19755;DHT22;10036;47.812;9.274;2023-03-01T07:45:04;1.10;99.90
19755;DHT22;10036;47.812;9.274;2023-03-01T07:47:31;1.20;99.90
19755;DHT22;10036;47.812;9.274;2023-03-01T07:49:59;1.30;99.90
19755;DHT22;10036;47.812;9.274;2023-03-01T07:52:28;1.30;99.90
19755;DHT22;10036;47.812;9.274;2023-03-01T07:54:56;1.20;99.90
19755;DHT22;10036;47.812;9.274;2023-03-01T07:57:23;1.30;99.90
19755;DHT22;10036;47.812;9.274;2023-03-01T07:59:50;1.20;99.90
19755;DHT22;10036;47.812;9.274;2023-03-01T08:02:16;1.20;99.90
19755;DHT22;10036;47.812;9.274;2023-03-01T08:04:43;1.30;99.90
19755;DHT22;10036;47.812;9.274;2023-03-01T08:07:11;1.30;99.90
19755;DHT22;10036;47.812;9.274;2023-03-01T08:09:38;1.30;99.90
19755;DHT22;10036;47.812;9.274;2023-03-01T08:12:05;1.20;99.90
19755;DHT22;10036;47.812;9.274;2023-03-01T08:14:32;1.30;99.90
19755;DHT22;10036;47.812;9.274;2023-03-01T08:16:59;1.40;99.90
19755;DHT22;10036;47.812;9.274;2023-03-01T08:19:28;1.50;99.90
19755;DHT22;10036;47.812;9.274;2023-03-01T08:21:55;1.40;99.90
19755;DHT22;10036;47.812;9.274;2023-03-01T08:24:25;1.30;99.90
19755;DHT22;10036;47.812;9.274;2023-03-01T08:26:52;1.30;99.90
19755;DHT22;10036;47.812;9.274;2023-03-01T08:29:19;1.20;99.90
19755;DHT22;10036;47.812;9.274;2023-03-01T08:31:46;1.30;99.90
19755;DHT22;10036;47.812;9.274;2023-03-01T08:34:15;1.30;99.90
19755;DHT22;10036;47.812;9.274;2023-03-01T08:36:44;1.30;99.90
19755;DHT22;10036;47.812;9.274;2023-03-01T08:39:13;1.30;99.90
19755;DHT22;10036;47.812;9.274;2023-03-01T08:41:41;1.40;99.90
19755;DHT22;10036;47.812;9.274;2023-03-01T08:44:10;1.60;99.90
19755;DHT22;10036;47.812;9.274;2023-03-01T08:46:39;1.60;99.90
19755;DHT22;10036;47.812;9.274;2023-03-01T08:49:07;1.50;99.90
19755;DHT22;10036;47.812;9.274;2023-03-01T08:51:35;1.60;99.90
19755;DHT22;10036;47.812;9.274;2023-03-01T08:54:03;1.60;99.90
19755;DHT22;10036;47.812;9.274;2023-03-01T08:56:30;1.60;99.90
19755;DHT22;10036;47.812;9.274;2023-03-01T08:58:58;1.80;99.90
19755;DHT22;10036;47.812;9.274;2023-03-01T09:01:25;1.70;99.90
19755;DHT22;10036;47.812;9.274;2023-03-01T09:03:52;1.70;99.90
19755;DHT22;10036;47.812;9.274;2023-03-01T09:06:19;1.70;99.90
19755;DHT22;10036;47.812;9.274;2023-03-01T09:08:48;1.70;99.90
19755;DHT22;10036;47.812;9.274;2023-03-01T09:11:18;1.70;99.90
19755;DHT22;10036;47.812;9.274;2023-03-01T09:13:46;1.60;99.90
19755;DHT22;10036;47.812;9.274;2023-03-01T09:16:16;1.60;99.90
19755;DHT22;10036;47.812;9.274;2023-03-01T09:18:43;1.60;99.90
19755;DHT22;10036;47.812;9.274;2023-03-01T09:21:12;1.50;99.90
19755;DHT22;10036;47.812;9.274;2023-03-01T09:23:40;1.60;99.90
19755;DHT22;10036;47.812;9.274;2023-03-01T09:26:09;1.70;99.90
19755;DHT22;10036;47.812;9.274;2023-03-01T09:28:37;1.70;99.90
19755;DHT22;10036;47.812;9.274;2023-03-01T09:31:04;1.70;99.90
19755;DHT22;10036;47.812;9.274;2023-03-01T09:33:33;1.70;99.90
19755;DHT22;10036;47.812;9.274;2023-03-01T09:36:02;1.70;99.90
19755;DHT22;10036;47.812;9.274;2023-03-01T09:38:29;1.80;99.90
19755;DHT22;10036;47.812;9.274;2023-03-01T09:40:56;1.80;99.90
19755;DHT22;10036;47.812;9.274;2023-03-01T09:43:27;1.90;99.90
19755;DHT22;10036;47.812;9.274;2023-03-01T09:45:59;1.90;99.90
19755;DHT22;10036;47.812;9.274;2023-03-01T09:48:33;1.90;99.90
19755;DHT22;10036;47.812;9.274;2023-03-01T09:51:06;1.90;99.90
19755;DHT22;10036;47.812;9.274;2023-03-01T09:53:35;1.90;99.90
19755;DHT22;10036;47.812;9.274;2023-03-01T09:56:05;1.90;99.90
19755;DHT22;10036;47.812;9.274;2023-03-01T09:58:44;1.80;99.90
19755;DHT22;10036;47.812;9.274;2023-03-01T10:01:27;1.80;99.90
19755;DHT22;10036;47.812;9.274;2023-03-01T10:04:12;1.80;99.90
19755;DHT22;10036;47.812;9.274;2023-03-01T10:06:47;1.90;99.90
19755;DHT22;10036;47.812;9.274;2023-03-01T10:09:18;1.90;99.90
19755;DHT22;10036;47.812;9.274;2023-03-01T10:11:49;1.90;99.90
19755;DHT22;10036;47.812;9.274;2023-03-01T10:14:27;1.90;99.90
19755;DHT22;10036;47.812;9.274;2023-03-01T10:16:58;1.90;99.90
19755;DHT22;10036;47.812;9.274;2023-03-01T10:19:32;2.00;99.90
19755;DHT22;10036;47.812;9.274;2023-03-01T10:22:04;2.10;99.90
19755;DHT22;10036;47.812;9.274;2023-03-01T10:24:36;2.10;99.90
19755;DHT22;10036;47.812;9.274;2023-03-01T10:27:06;2.00;99.90
19755;DHT22;10036;47.812;9.274;2023-03-01T10:29:48;2.10;99.90
19755;DHT22;10036;47.812;9.274;2023-03-01T10:32:18;2.10;99.90
19755;DHT22;10036;47.812;9.274;2023-03-01T10:34:48;2.10;99.90
19755;DHT22;10036;47.812;9.274;2023-03-01T10:37:16;2.30;99.90
19755;DHT22;10036;47.812;9.274;2023-03-01T10:40:02;2.30;99.90
19755;DHT22;10036;47.812;9.274;2023-03-01T10:42:34;2.20;99.90
19755;DHT22;10036;47.812;9.274;2023-03-01T10:45:16;2.30;99.90
19755;DHT22;10036;47.812;9.274;2023-03-01T10:47:43;2.20;99.90
19755;DHT22;10036;47.812;9.274;2023-03-01T10:50:21;2.20;99.90
19755;DHT22;10036;47.812;9.274;2023-03-01T10:52:59;2.20;99.90
19755;DHT22;10036;47.812;9.274;2023-03-01T10:55:30;2.30;99.90
19755;DHT22;10036;47.812;9.274;2023-03-01T10:58:15;2.30;99.90
19755;DHT22;10036;47.812;9.274;2023-03-01T11:00:51;2.40;99.90
19755;DHT22;10036;47.812;9.274;2023-03-01T11:03:21;2.30;99.90
19755;DHT22;10036;47.812;9.274;2023-03-01T11:05:59;2.40;99.90
19755;DHT22;10036;47.812;9.274;2023-03-01T11:08:34;2.40;99.90
19755;DHT22;10036;47.812;9.274;2023-03-01T11:11:18;2.40;99.90
19755;DHT22;10036;47.812;9.274;2023-03-01T11:13:54;2.30;99.90
19755;DHT22;10036;47.812;9.274;2023-03-01T11:16:31;2.30;99.90
19755;DHT22;10036;47.812;9.274;2023-03-01T11:19:01;2.20;99.90
19755;DHT22;10036;47.812;9.274;2023-03-01T11:21:33;2.20;99.90
19755;DHT22;10036;47.812;9.274;2023-03-01T11:24:02;2.20;99.90
19755;DHT22;10036;47.812;9.274;2023-03-01T11:26:31;2.20;99.90
19755;DHT22;10036;47.812;9.274;2023-03-01T11:29:05;2.20;99.90
19755;DHT22;10036;47.812;9.274;2023-03-01T11:31:33;2.20;99.90
19755;DHT22;10036;47.812;9.274;2023-03-01T11:34:06;2.20;99.90
19755;DHT22;10036;47.812;9.274;2023-03-01T11:36:40;2.30;99.90
19755;DHT22;10036;47.812;9.274;2023-03-01T11:39:18;2.40;99.90
19755;DHT22;10036;47.812;9.274;2023-03-01T11:41:50;2.50;99.90
19755;DHT22;10036;47.812;9.274;2023-03-01T11:44:23;2.50;99.90
19755;DHT22;10036;47.812;9.274;2023-03-01T11:47:11;2.40;99.90
19755;DHT22;10036;47.812;9.274;2023-03-01T11:49:54;2.50;99.90
19755;DHT22;10036;47.812;9.274;2023-03-01T11:52:33;2.50;99.90
19755;DHT22;10036;47.812;9.274;2023-03-01T11:55:17;2.60;99.90
19755;DHT22;10036;47.812;9.274;2023-03-01T11:58:00;2.50;99.90
19755;DHT22;10036;47.812;9.274;2023-03-01T12:00:44;2.60;99.90
19755;DHT22;10036;47.812;9.274;2023-03-01T12:03:30;2.60;99.90
19755;DHT22;10036;47.812;9.274;2023-03-01T12:06:06;2.60;99.90
19755;DHT22;10036;47.812;9.274;2023-03-01T12:08:40;2.70;99.90
19755;DHT22;10036;47.812;9.274;2023-03-01T12:11:18;2.70;99.90
19755;DHT22;10036;47.812;9.274;2023-03-01T12:14:19;2.70;99.90
19755;DHT22;10036;47.812;9.274;2023-03-01T12:17:05;2.70;99.90
19755;DHT22;10036;47.812;9.274;2023-03-01T12:19:55;2.70;99.90
19755;DHT22;10036;47.812;9.274;2023-03-01T12:22:29;2.80;99.90
19755;DHT22;10036;47.812;9.274;2023-03-01T12:25:16;2.70;99.90
19755;DHT22;10036;47.812;9.274;2023-03-01T12:28:02;2.70;99.90
19755;DHT22;10036;47.812;9.274;2023-03-01T12:30:39;2.90;99.90
19755;DHT22;10036;47.812;9.274;2023-03-01T12:33:22;2.80;99.90
19755;DHT22;10036;47.812;9.274;2023-03-01T12:39:16;2.90;99.90
19755;DHT22;10036;47.812;9.274;2023-03-01T12:41:54;3.00;99.90
19755;DHT22;10036;47.812;9.274;2023-03-01T12:47:45;2.90;99.90
19755;DHT22;10036;47.812;9.274;2023-03-01T12:50:20;3.00;99.90
19755;DHT22;10036;47.812;9.274;2023-03-01T12:52:51;3.00;99.90
19755;DHT22;10036;47.812;9.274;2023-03-01T12:55:25;3.00;99.90
19755;DHT22;10036;47.812;9.274;2023-03-01T12:58:00;2.90;99.90
19755;DHT22;10036;47.812;9.274;2023-03-01T13:00:35;3.00;99.90
19755;DHT22;10036;47.812;9.274;2023-03-01T13:03:12;3.10;99.90
19755;DHT22;10036;47.812;9.274;2023-03-01T13:05:48;3.10;99.90
19755;DHT22;10036;47.812;9.274;2023-03-01T13:08:22;3.00;99.90
19755;DHT22;10036;47.812;9.274;2023-03-01T13:10:56;3.10;99.90
19755;DHT22;10036;47.812;9.274;2023-03-01T13:13:27;3.10;99.90
19755;DHT22;10036;47.812;9.274;2023-03-01T13:15:55;3.10;99.90
19755;DHT22;10036;47.812;9.274;2023-03-01T13:18:30;3.20;99.90
19755;DHT22;10036;47.812;9.274;2023-03-01T13:20:59;3.30;99.90
19755;DHT22;10036;47.812;9.274;2023-03-01T13:23:29;3.20;99.90
19755;DHT22;10036;47.812;9.274;2023-03-01T13:26:12;3.20;99.90
19755;DHT22;10036;47.812;9.274;2023-03-01T13:29:01;3.20;99.90
19755;DHT22;10036;47.812;9.274;2023-03-01T13:31:58;3.30;99.90
19755;DHT22;10036;47.812;9.274;2023-03-01T13:34:47;3.40;99.90
19755;DHT22;10036;47.812;9.274;2023-03-01T13:37:31;3.40;99.90
19755;DHT22;10036;47.812;9.274;2023-03-01T13:40:01;3.30;99.90
19755;DHT22;10036;47.812;9.274;2023-03-01T13:42:36;3.10;99.90
19755;DHT22;10036;47.812;9.274;2023-03-01T13:45:24;3.10;99.90
19755;DHT22;10036;47.812;9.274;2023-03-01T13:47:57;3.10;99.90
19755;DHT22;10036;47.812;9.274;2023-03-01T13:50:27;3.20;99.90
19755;DHT22;10036;47.812;9.274;2023-03-01T13:52:56;3.30;99.90
19755;DHT22;10036;47.812;9.274;2023-03-01T13:55:27;3.30;99.90
19755;DHT22;10036;47.812;9.274;2023-03-01T13:57:58;3.40;99.90
19755;DHT22;10036;47.812;9.274;2023-03-01T14:00:33;3.30;99.90
19755;DHT22;10036;47.812;9.274;2023-03-01T14:03:12;3.30;99.90
19755;DHT22;10036;47.812;9.274;2023-03-01T14:05:40;3.20;99.90
19755;DHT22;10036;47.812;9.274;2023-03-01T14:08:20;3.10;99.90
19755;DHT22;10036;47.812;9.274;2023-03-01T14:10:57;3.00;99.90
19755;DHT22;10036;47.812;9.274;2023-03-01T14:13:35;3.00;99.90
19755;DHT22;10036;47.812;9.274;2023-03-01T14:16:21;3.00;99.90
19755;DHT22;10036;47.812;9.274;2023-03-01T14:18:59;3.00;99.90
19755;DHT22;10036;47.812;9.274;2023-03-01T14:21:29;3.00;99.90
19755;DHT22;10036;47.812;9.274;2023-03-01T14:23:57;3.10;99.90
19755;DHT22;10036;47.812;9.274;2023-03-01T14:26:24;3.20;99.90
19755;DHT22;10036;47.812;9.274;2023-03-01T14:28:51;3.20;99.90
19755;DHT22;10036;47.812;9.274;2023-03-01T14:31:40;3.20;99.90
19755;DHT22;10036;47.812;9.274;2023-03-01T14:34:19;3.10;99.90
19755;DHT22;10036;47.812;9.274;2023-03-01T14:36:46;3.10;99.90
19755;DHT22;10036;47.812;9.274;2023-03-01T14:39:18;3.00;99.90
19755;DHT22;10036;47.812;9.274;2023-03-01T14:41:45;3.00;99.90
19755;DHT22;10036;47.812;9.274;2023-03-01T14:44:16;3.00;99.90
19755;DHT22;10036;47.812;9.274;2023-03-01T14:46:45;3.10;99.90
19755;DHT22;10036;47.812;9.274;2023-03-01T14:49:15;3.40;99.90
19755;DHT22;10036;47.812;9.274;2023-03-01T14:51:48;3.70;99.90
19755;DHT22;10036;47.812;9.274;2023-03-01T14:54:21;4.00;99.90
19755;DHT22;10036;47.812;9.274;2023-03-01T14:56:51;4.30;99.90
19755;DHT22;10036;47.812;9.274;2023-03-01T14:59:21;4.30;99.90
19755;DHT22;10036;47.812;9.274;2023-03-01T15:01:49;4.40;99.90
19755;DHT22;10036;47.812;9.274;2023-03-01T15:04:18;4.40;99.90
19755;DHT22;10036;47.812;9.274;2023-03-01T15:06:46;4.40;99.90
19755;DHT22;10036;47.812;9.274;2023-03-01T15:09:15;4.20;99.90
19755;DHT22;10036;47.812;9.274;2023-03-01T15:11:43;4.10;99.90
19755;DHT22;10036;47.812;9.274;2023-03-01T15:14:27;4.10;99.90
19755;DHT22;10036;47.812;9.274;2023-03-01T15:16:56;4.10;99.90
19755;DHT22;10036;47.812;9.274;2023-03-01T15:19:28;4.10;99.90
19755;DHT22;10036;47.812;9.274;2023-03-01T15:21:55;4.10;99.90
19755;DHT22;10036;47.812;9.274;2023-03-01T15:24:24;4.10;99.90
19755;DHT22;10036;47.812;9.274;2023-03-01T15:26:55;4.10;99.90
19755;DHT22;10036;47.812;9.274;2023-03-01T15:29:25;4.10;99.90
19755;DHT22;10036;47.812;9.274;2023-03-01T15:31:59;4.10;99.90
19755;DHT22;10036;47.812;9.274;2023-03-01T15:34:27;4.20;99.90
19755;DHT22;10036;47.812;9.274;2023-03-01T15:36:56;4.10;99.90
19755;DHT22;10036;47.812;9.274;2023-03-01T15:39:34;4.00;99.90
19755;DHT22;10036;47.812;9.274;2023-03-01T15:42:05;3.90;99.90
19755;DHT22;10036;47.812;9.274;2023-03-01T15:44:33;3.90;99.90
19755;DHT22;10036;47.812;9.274;2023-03-01T15:47:05;3.80;99.90
19755;DHT22;10036;47.812;9.274;2023-03-01T15:49:37;3.70;99.90
19755;DHT22;10036;47.812;9.274;2023-03-01T15:52:08;3.70;99.90
19755;DHT22;10036;47.812;9.274;2023-03-01T15:54:36;3.70;99.90
19755;DHT22;10036;47.812;9.274;2023-03-01T15:57:09;3.80;99.90
19755;DHT22;10036;47.812;9.274;2023-03-01T15:59:38;3.80;99.90
19755;DHT22;10036;47.812;9.274;2023-03-01T16:02:10;3.70;99.90
19755;DHT22;10036;47.812;9.274;2023-03-01T16:04:38;3.80;99.90
19755;DHT22;10036;47.812;9.274;2023-03-01T16:07:05;3.80;99.90
19755;DHT22;10036;47.812;9.274;2023-03-01T16:09:33;3.80;99.90
19755;DHT22;10036;47.812;9.274;2023-03-01T16:11:59;3.80;99.90
19755;DHT22;10036;47.812;9.274;2023-03-01T16:14:27;3.80;99.90